Nibulon 1 — UUAS4 — position and weather

sailwx.info

Track history (hours):
 
Tides and Currents Weather Stations Pressure Air Temp Water Temp Dewpoint Dewpoint Depression Visibility Wind Speed Wind Dir Waves Ship Positions

Nibulon 1

Last reported at 2014-Oct-21 21:33 UTC. Time now 2014-Oct-21 21:39 UTC.
Position N 47°45' E 035°10'.

Length 38 m; draft 2.6 m.

Type: Tug. MMSI: 272641000.

Date/timePositionNaut miles runAvg speedWind from/ knotsBaromVisibWave heightAir tempDewpointWater temp
2014-Oct-21 21:33N 47°45' E 035°10'5 4.9
2014-Oct-21 20:33N 47°41' E 035°08'5 5.0
2014-Oct-21 19:34N 47°37' E 035°03'132 3.6
2014-Oct-20 06:31N 46°33' E 032°14'0 0.0
2014-Oct-20 05:31N 46°33' E 032°14'0 0.0
2014-Oct-20 04:33N 46°33' E 032°14'0 0.0
2014-Oct-20 03:33N 46°33' E 032°14'4 4.1
2014-Oct-20 02:33N 46°32' E 032°08'5 5.2
2014-Oct-20 01:33N 46°33' E 032°00'5 5.3
2014-Oct-20 00:33N 46°34' E 031°53'5 5.4
2014-Oct-19 23:33N 46°36' E 031°46'7 3.3
2014-Oct-19 21:22N 46°36' E 031°35'3 1.3
2014-Oct-19 19:12N 46°36' E 031°31'3 3.2
2014-Oct-19 18:11N 46°35' E 031°36'1 1.5
2014-Oct-19 17:33N 46°36' E 031°36'0 0.0
2014-Oct-19 16:21N 46°36' E 031°36'0 0.0
2014-Oct-19 15:30N 46°36' E 031°36'0 0.0
2014-Oct-19 10:29N 46°36' E 031°35'0 0.0
2014-Oct-19 08:32N 46°36' E 031°35'3 1.4
2014-Oct-19 06:08N 46°35' E 031°40'2 3.1
2014-Oct-19 05:32N 46°36' E 031°43'3 2.8
2014-Oct-19 04:33N 46°36' E 031°47'3 2.9
2014-Oct-19 03:33N 46°35' E 031°51'3 3.0
2014-Oct-19 02:33N 46°34' E 031°55'3 3.1
2014-Oct-19 01:33N 46°33' E 031°59'3 3.3
2014-Oct-19 00:31N 46°32' E 032°04'  
2014-Oct-15 04:25N 46°33' E 032°18'3 3.3
2014-Oct-15 03:33N 46°33' E 032°14'0 0.0
2014-Oct-15 02:32N 46°33' E 032°14'2 2.0
2014-Oct-15 01:33N 46°33' E 032°12'5 5.1
2014-Oct-15 00:33N 46°32' E 032°04'5 5.0
2014-Oct-14 23:33N 46°33' E 031°57'5 5.2
2014-Oct-14 22:33N 46°35' E 031°50'5 5.2
2014-Oct-14 21:32N 46°35' E 031°42'5 4.9
2014-Oct-14 20:32N 46°36' E 031°35'1 1.3
2014-Oct-14 19:33N 46°35' E 031°35'2 1.1
2014-Oct-14 17:27N 46°37' E 031°32'0 0.0
2014-Oct-14 16:17N 46°37' E 031°32'2 3.0
2014-Oct-14 15:33N 46°36' E 031°29'7 6.5
2014-Oct-14 14:33N 46°35' E 031°20'0 0.2
2014-Oct-14 13:33N 46°35' E 031°19'0 0.1
2014-Oct-14 12:33N 46°35' E 031°19'0 0.0
2014-Oct-14 11:24N 46°35' E 031°19'0 0.1
2014-Oct-14 10:24N 46°35' E 031°19'0 0.0
2014-Oct-14 09:18N 46°35' E 031°19'1 0.8
2014-Oct-14 08:19N 46°36' E 031°20'0 0.0
2014-Oct-14 07:26N 46°36' E 031°20'0 0.0
2014-Oct-14 06:13N 46°36' E 031°20'0 0.0
2014-Oct-14 05:29N 46°36' E 031°20'1 0.8
2014-Oct-14 04:28N 46°35' E 031°19'0 0.5
2014-Oct-14 03:33N 46°35' E 031°20'0 0.0
2014-Oct-14 02:33N 46°35' E 031°20'0 0.1
2014-Oct-14 00:32N 46°35' E 031°20'0 0.0
2014-Oct-13 07:29N 46°35' E 031°20'4 2.7
2014-Oct-13 06:05N 46°35' E 031°26'2 4.3
2014-Oct-13 05:33N 46°36' E 031°29'4 3.8
2014-Oct-13 04:33N 46°35' E 031°34'2 1.5
2014-Oct-13 03:20N 46°36' E 031°35'0 0.0
2014-Oct-13 02:24N 46°36' E 031°35'0 0.0
2014-Oct-13 01:33N 46°36' E 031°35'0 0.0
2014-Oct-13 00:33N 46°36' E 031°35'0 0.0
2014-Oct-12 23:33N 46°36' E 031°35'0 0.0
2014-Oct-12 22:33N 46°36' E 031°35'0 0.0
2014-Oct-12 21:33N 46°36' E 031°35'0 0.0
2014-Oct-12 20:33N 46°36' E 031°35'0 0.1
2014-Oct-12 19:25N 46°36' E 031°36'0 0.0
2014-Oct-12 18:33N 46°36' E 031°36'0 0.0
2014-Oct-12 17:33N 46°36' E 031°36'0 0.0
2014-Oct-12 16:33N 46°36' E 031°36'0 0.0
2014-Oct-12 15:33N 46°36' E 031°36'3 3.1
2014-Oct-12 14:26N 46°36' E 031°41'4 4.0
2014-Oct-12 13:32N 46°36' E 031°46'4 3.9
2014-Oct-12 12:33N 46°35' E 031°51'4 4.0
2014-Oct-12 11:33N 46°34' E 031°57'4 4.0
2014-Oct-12 10:33N 46°32' E 032°02'18 2.9
2014-Oct-12 04:25N 46°34' E 032°28'0 0.0
2014-Oct-12 03:04N 46°34' E 032°28'0 0.0
2014-Oct-12 02:33N 46°34' E 032°28'0 0.0
2014-Oct-12 01:32N 46°34' E 032°28'0 0.0
2014-Oct-12 00:33N 46°34' E 032°28'0 0.0
2014-Oct-11 22:32N 46°34' E 032°28'  
Track history (hours):
 
Tides and Currents Weather Stations Pressure Air Temp Water Temp Dewpoint Dewpoint Depression Visibility Wind Speed Wind Dir Waves Ship Positions

Nibulon 1

Last reported at 2014-Oct-21 21:33 UTC. Time now 2014-Oct-21 21:39 UTC.
Position N 47°45' E 035°10'.

Length 38 m; draft 2.6 m.

Type: Tug. MMSI: 272641000.

Date/timePositionNaut miles runAvg speedWind from/ knotsBaromVisibWave heightAir tempDewpointWater temp
2014-Oct-21 21:33N 47°45' E 035°10'5 4.9
2014-Oct-21 20:33N 47°41' E 035°08'5 5.0
2014-Oct-21 19:34N 47°37' E 035°03'132 3.6
2014-Oct-20 06:31N 46°33' E 032°14'0 0.0
2014-Oct-20 05:31N 46°33' E 032°14'0 0.0
2014-Oct-20 04:33N 46°33' E 032°14'0 0.0
2014-Oct-20 03:33N 46°33' E 032°14'4 4.1
2014-Oct-20 02:33N 46°32' E 032°08'5 5.2
2014-Oct-20 01:33N 46°33' E 032°00'5 5.3
2014-Oct-20 00:33N 46°34' E 031°53'5 5.4
2014-Oct-19 23:33N 46°36' E 031°46'7 3.3
2014-Oct-19 21:22N 46°36' E 031°35'3 1.3
2014-Oct-19 19:12N 46°36' E 031°31'3 3.2
2014-Oct-19 18:11N 46°35' E 031°36'1 1.5
2014-Oct-19 17:33N 46°36' E 031°36'0 0.0
2014-Oct-19 16:21N 46°36' E 031°36'0 0.0
2014-Oct-19 15:30N 46°36' E 031°36'0 0.0
2014-Oct-19 10:29N 46°36' E 031°35'0 0.0
2014-Oct-19 08:32N 46°36' E 031°35'3 1.4
2014-Oct-19 06:08N 46°35' E 031°40'2 3.1
2014-Oct-19 05:32N 46°36' E 031°43'3 2.8
2014-Oct-19 04:33N 46°36' E 031°47'3 2.9
2014-Oct-19 03:33N 46°35' E 031°51'3 3.0
2014-Oct-19 02:33N 46°34' E 031°55'3 3.1
2014-Oct-19 01:33N 46°33' E 031°59'3 3.3
2014-Oct-19 00:31N 46°32' E 032°04'  
2014-Oct-15 04:25N 46°33' E 032°18'3 3.3
2014-Oct-15 03:33N 46°33' E 032°14'0 0.0
2014-Oct-15 02:32N 46°33' E 032°14'2 2.0
2014-Oct-15 01:33N 46°33' E 032°12'5 5.1
2014-Oct-15 00:33N 46°32' E 032°04'5 5.0
2014-Oct-14 23:33N 46°33' E 031°57'5 5.2
2014-Oct-14 22:33N 46°35' E 031°50'5 5.2
2014-Oct-14 21:32N 46°35' E 031°42'5 4.9
2014-Oct-14 20:32N 46°36' E 031°35'1 1.3
2014-Oct-14 19:33N 46°35' E 031°35'2 1.1
2014-Oct-14 17:27N 46°37' E 031°32'0 0.0
2014-Oct-14 16:17N 46°37' E 031°32'2 3.0
2014-Oct-14 15:33N 46°36' E 031°29'7 6.5
2014-Oct-14 14:33N 46°35' E 031°20'0 0.2
2014-Oct-14 13:33N 46°35' E 031°19'0 0.1
2014-Oct-14 12:33N 46°35' E 031°19'0 0.0
2014-Oct-14 11:24N 46°35' E 031°19'0 0.1
2014-Oct-14 10:24N 46°35' E 031°19'0 0.0
2014-Oct-14 09:18N 46°35' E 031°19'1 0.8
2014-Oct-14 08:19N 46°36' E 031°20'0 0.0
2014-Oct-14 07:26N 46°36' E 031°20'0 0.0
2014-Oct-14 06:13N 46°36' E 031°20'0 0.0
2014-Oct-14 05:29N 46°36' E 031°20'1 0.8
2014-Oct-14 04:28N 46°35' E 031°19'0 0.5
2014-Oct-14 03:33N 46°35' E 031°20'0 0.0
2014-Oct-14 02:33N 46°35' E 031°20'0 0.1
2014-Oct-14 00:32N 46°35' E 031°20'0 0.0
2014-Oct-13 07:29N 46°35' E 031°20'4 2.7
2014-Oct-13 06:05N 46°35' E 031°26'2 4.3
2014-Oct-13 05:33N 46°36' E 031°29'4 3.8
2014-Oct-13 04:33N 46°35' E 031°34'2 1.5
2014-Oct-13 03:20N 46°36' E 031°35'0 0.0
2014-Oct-13 02:24N 46°36' E 031°35'0 0.0
2014-Oct-13 01:33N 46°36' E 031°35'0 0.0
2014-Oct-13 00:33N 46°36' E 031°35'0 0.0
2014-Oct-12 23:33N 46°36' E 031°35'0 0.0
2014-Oct-12 22:33N 46°36' E 031°35'0 0.0
2014-Oct-12 21:33N 46°36' E 031°35'0 0.0
2014-Oct-12 20:33N 46°36' E 031°35'0 0.1
2014-Oct-12 19:25N 46°36' E 031°36'0 0.0
2014-Oct-12 18:33N 46°36' E 031°36'0 0.0
2014-Oct-12 17:33N 46°36' E 031°36'0 0.0
2014-Oct-12 16:33N 46°36' E 031°36'0 0.0
2014-Oct-12 15:33N 46°36' E 031°36'3 3.1
2014-Oct-12 14:26N 46°36' E 031°41'4 4.0
2014-Oct-12 13:32N 46°36' E 031°46'4 3.9
2014-Oct-12 12:33N 46°35' E 031°51'4 4.0
2014-Oct-12 11:33N 46°34' E 031°57'4 4.0
2014-Oct-12 10:33N 46°32' E 032°02'18 2.9
2014-Oct-12 04:25N 46°34' E 032°28'0 0.0
2014-Oct-12 03:04N 46°34' E 032°28'0 0.0
2014-Oct-12 02:33N 46°34' E 032°28'0 0.0
2014-Oct-12 01:32N 46°34' E 032°28'0 0.0
2014-Oct-12 00:33N 46°34' E 032°28'0 0.0
2014-Oct-11 22:32N 46°34' E 032°28'  

Dump ship's entire track history